Time;durP1;ratioP1;P1;durP2;ratioP2;P2;SDS_P1;SDS_P2;PMS_P1;PMS_P2;Temp;Humidity;BMP_temperature;BMP_pressure;BME280_temperature;BME280_humidity;BME280_pressure;Samples;Min_cycle;Max_cycle;Signal;HPM_P1;HPM_P2
2022/07/12 00:02:18;;;;;;;14.90;8.82;;;10.90;99.90;;;;;;5041823;28;20025;-69
2022/07/12 00:04:45;;;;;;;11.95;8.27;;;10.90;99.90;;;;;;5041203;28;20346;-69
2022/07/12 00:07:12;;;;;;;11.98;10.05;;;11.00;99.90;;;;;;5043210;28;20044;-67
2022/07/12 00:09:39;;;;;;;12.07;8.68;;;11.00;99.90;;;;;;5042244;28;20036;-68
2022/07/12 00:12:07;;;;;;;14.05;7.70;;;11.10;99.90;;;;;;5043414;28;20025;-70
2022/07/12 00:14:34;;;;;;;12.18;8.00;;;11.20;99.90;;;;;;5041467;28;20070;-68
2022/07/12 00:17:04;;;;;;;10.15;6.72;;;11.30;99.90;;;;;;5044414;28;20057;-68
2022/07/12 00:19:32;;;;;;;8.45;6.35;;;11.40;99.90;;;;;;5042943;28;20086;-69
2022/07/12 00:21:59;;;;;;;6.50;4.82;;;11.50;99.90;;;;;;5044034;28;20123;-70
2022/07/12 00:24:26;;;;;;;7.55;5.70;;;11.60;99.90;;;;;;5042865;28;20017;-67
2022/07/12 00:26:53;;;;;;;9.13;6.00;;;11.70;99.90;;;;;;5043521;28;20099;-69
2022/07/12 00:29:20;;;;;;;8.25;6.05;;;11.90;99.90;;;;;;5043735;28;20032;-67
2022/07/12 00:31:47;;;;;;;11.10;7.13;;;12.00;99.90;;;;;;5043897;28;20702;-69
2022/07/12 00:34:14;;;;;;;9.20;7.30;;;12.30;99.90;;;;;;5043796;28;20060;-68
2022/07/12 00:36:41;;;;;;;10.43;6.85;;;12.50;99.90;;;;;;5044736;28;20021;-69
2022/07/12 00:39:08;;;;;;;7.45;6.35;;;12.80;99.90;;;;;;5044582;28;20791;-67
2022/07/12 00:41:35;;;;;;;7.50;6.70;;;13.00;99.90;;;;;;5043831;28;20020;-67
2022/07/12 00:44:03;;;;;;;7.43;6.57;;;13.20;99.90;;;;;;5043109;28;20137;-69
2022/07/12 00:46:31;;;;;;;6.90;6.20;;;13.40;99.90;;;;;;5042462;28;20055;-68
2022/07/12 00:48:58;;;;;;;7.13;6.43;;;13.60;99.90;;;;;;5042289;28;20036;-69
2022/07/12 00:51:26;;;;;;;7.78;6.13;;;13.60;99.90;;;;;;5041153;28;20021;-67
2022/07/12 00:53:56;;;;;;;7.25;5.70;;;13.70;99.90;;;;;;5043062;28;20484;-67
2022/07/12 00:56:23;;;;;;;10.35;6.90;;;13.80;99.90;;;;;;5042265;28;20045;-69
2022/07/12 00:58:50;;;;;;;9.00;7.75;;;13.90;99.90;;;;;;5042073;28;20083;-69
2022/07/12 01:01:17;;;;;;;9.68;7.18;;;14.00;99.90;;;;;;5043579;28;20487;-68
2022/07/12 01:03:44;;;;;;;8.73;6.82;;;14.30;99.90;;;;;;5043081;28;20032;-67
2022/07/12 01:06:12;;;;;;;8.68;5.82;;;14.40;99.90;;;;;;5042982;28;20115;-69
2022/07/12 01:08:39;;;;;;;6.78;5.60;;;14.60;99.90;;;;;;5042434;28;20664;-68
2022/07/12 01:11:06;;;;;;;6.63;5.88;;;14.80;99.90;;;;;;5041041;28;20037;-69
2022/07/12 01:13:34;;;;;;;7.28;6.10;;;15.00;99.90;;;;;;5039442;28;20029;-67
2022/07/12 01:16:02;;;;;;;8.45;6.20;;;15.10;99.90;;;;;;5044537;28;20033;-68
2022/07/12 01:18:29;;;;;;;6.75;5.25;;;15.20;99.90;;;;;;5042448;28;20079;-67
2022/07/12 01:20:57;;;;;;;5.95;5.30;;;15.40;99.90;;;;;;5046955;28;20025;-67
2022/07/12 01:23:26;;;;;;;7.63;5.85;;;15.40;99.90;;;;;;5042433;28;20033;-67
2022/07/12 01:25:53;;;;;;;7.47;5.53;;;15.60;99.90;;;;;;5045652;28;20037;-65
2022/07/12 01:28:21;;;;;;;8.68;6.18;;;15.70;99.90;;;;;;5047387;28;20426;-61
2022/07/12 01:30:48;;;;;;;10.68;7.10;;;15.90;99.90;;;;;;5051891;28;20021;-67
2022/07/12 01:33:16;;;;;;;6.88;5.82;;;16.00;99.90;;;;;;5049267;28;20465;-63
2022/07/12 01:35:44;;;;;;;6.63;4.70;;;16.30;99.90;;;;;;5052220;28;20037;-68
2022/07/12 01:40:47;;;;;;;7.45;6.03;;;16.40;99.90;;;;;;5109452;23;20050;-63
2022/07/12 01:43:14;;;;;;;6.65;5.47;;;16.60;99.90;;;;;;5009949;28;20017;-62
2022/07/12 01:45:42;;;;;;;7.63;5.68;;;16.60;99.90;;;;;;5010589;28;20244;-65
2022/07/12 01:48:09;;;;;;;5.80;4.78;;;16.50;99.90;;;;;;5009267;28;20121;-65
2022/07/12 01:50:36;;;;;;;7.93;5.68;;;16.50;99.90;;;;;;5008956;28;20034;-65
2022/07/12 01:53:07;;;;;;;7.45;5.55;;;16.70;99.90;;;;;;5009701;28;20105;-65
2022/07/12 01:55:34;;;;;;;6.47;4.80;;;16.90;99.90;;;;;;4991035;28;20021;-65
2022/07/12 01:58:01;;;;;;;6.07;4.20;;;17.20;99.90;;;;;;5009127;28;20435;-64
2022/07/12 02:00:29;;;;;;;4.80;3.90;;;17.30;99.90;;;;;;5007592;28;20030;-63
2022/07/12 02:02:56;;;;;;;6.65;3.70;;;17.40;99.90;;;;;;5007341;28;20034;-62
2022/07/12 02:05:24;;;;;;;3.25;2.78;;;17.60;99.90;;;;;;5008785;28;20068;-66
2022/07/12 02:07:52;;;;;;;4.80;3.10;;;17.80;99.90;;;;;;5008722;28;20029;-64
2022/07/12 02:10:19;;;;;;;4.90;3.40;;;17.70;99.90;;;;;;5009668;28;20104;-68
2022/07/12 02:12:46;;;;;;;3.35;2.58;;;17.80;99.90;;;;;;5008369;28;20018;-64
2022/07/12 02:15:13;;;;;;;3.45;2.63;;;18.00;99.90;;;;;;5008948;28;20029;-65
2022/07/12 02:17:40;;;;;;;3.08;2.03;;;18.10;99.90;;;;;;5008483;28;20080;-62
2022/07/12 02:20:12;;;;;;;3.13;2.08;;;18.00;99.90;;;;;;5007909;28;20033;-69
2022/07/12 02:22:39;;;;;;;2.57;2.23;;;17.80;99.90;;;;;;5007794;28;20068;-68
2022/07/12 02:25:06;;;;;;;3.35;2.03;;;17.50;99.90;;;;;;5007842;28;20034;-62
2022/07/12 02:27:34;;;;;;;2.90;2.20;;;17.30;99.90;;;;;;5005863;28;20026;-65
2022/07/12 02:30:01;;;;;;;4.07;2.50;;;17.20;99.90;;;;;;5002172;28;20018;-64
2022/07/12 02:32:29;;;;;;;3.90;2.70;;;17.30;99.90;;;;;;5005112;28;20034;-64
2022/07/12 02:34:56;;;;;;;3.80;2.90;;;17.40;99.90;;;;;;5005498;28;20080;-63
2022/07/12 02:37:23;;;;;;;3.90;2.70;;;17.60;99.90;;;;;;5003399;28;20573;-69
2022/07/12 02:39:50;;;;;;;2.53;1.80;;;17.70;99.90;;;;;;5004180;28;20037;-64
2022/07/12 02:42:17;;;;;;;2.95;1.70;;;17.70;99.90;;;;;;5004256;28;20401;-68
2022/07/12 02:44:45;;;;;;;1.92;1.50;;;17.70;99.90;;;;;;5004570;28;20092;-65
2022/07/12 02:47:12;;;;;;;2.33;1.40;;;17.70;99.90;;;;;;5004722;28;20100;-64
2022/07/12 02:49:39;;;;;;;2.33;1.40;;;17.80;99.90;;;;;;5003801;28;20477;-68
2022/07/12 02:52:06;;;;;;;1.95;1.20;;;17.90;99.90;;;;;;5004433;28;20108;-63
2022/07/12 02:54:33;;;;;;;1.65;1.55;;;17.80;99.90;;;;;;5004325;28;20062;-62
2022/07/12 02:57:00;;;;;;;2.70;1.30;;;17.90;99.90;;;;;;5003532;28;20040;-65
2022/07/12 02:59:27;;;;;;;2.85;1.33;;;18.00;99.90;;;;;;5004098;28;20744;-66
2022/07/12 03:01:55;;;;;;;2.25;1.80;;;18.40;99.90;;;;;;5003042;28;20040;-65
2022/07/12 03:04:22;;;;;;;3.80;2.63;;;18.50;99.90;;;;;;5003398;28;20032;-66
2022/07/12 03:06:49;;;;;;;2.72;1.65;;;18.50;99.90;;;;;;5003935;28;20567;-65
2022/07/12 03:09:16;;;;;;;3.42;1.58;;;18.30;99.90;;;;;;5002735;28;20026;-62
2022/07/12 03:11:43;;;;;;;2.65;1.20;;;18.30;99.90;;;;;;5003852;28;20120;-62
2022/07/12 03:14:10;;;;;;;2.70;1.50;;;18.30;99.90;;;;;;5003579;28;20152;-65
2022/07/12 03:16:37;;;;;;;2.67;1.50;;;18.20;99.90;;;;;;5001920;28;20049;-65
2022/07/12 03:19:05;;;;;;;2.63;1.40;;;18.10;99.90;;;;;;5002987;28;20381;-63
2022/07/12 03:21:32;;;;;;;2.58;1.58;;;18.30;99.90;;;;;;5003362;28;20129;-65
2022/07/12 03:23:59;;;;;;;2.97;1.50;;;18.30;99.90;;;;;;5004074;28;20116;-64
2022/07/12 03:26:26;;;;;;;5.05;1.98;;;18.30;99.90;;;;;;5004571;28;20014;-63
2022/07/12 03:28:53;;;;;;;1.48;1.20;;;18.50;99.90;;;;;;5003569;28;20156;-62
2022/07/12 03:31:20;;;;;;;1.70;1.13;;;18.80;99.90;;;;;;5001181;28;20061;-66
2022/07/12 03:33:47;;;;;;;5.05;1.67;;;19.10;99.90;;;;;;5003303;28;20377;-65
2022/07/12 03:36:14;;;;;;;4.05;1.45;;;19.00;98.90;;;;;;5003597;28;20030;-62
2022/07/12 03:38:42;;;;;;;3.47;1.77;;;19.00;97.40;;;;;;5003070;28;20018;-66
2022/07/12 03:41:09;;;;;;;6.30;1.60;;;19.20;98.50;;;;;;4294496;28;10000766;-67
2022/07/12 03:43:36;;;;;;;2.30;1.50;;;19.40;97.20;;;;;;4981254;28;20080;-67
2022/07/12 03:46:04;;;;;;;3.00;1.60;;;19.70;96.30;;;;;;4980213;28;20089;-63
2022/07/12 03:48:31;;;;;;;4.03;1.63;;;19.70;95.70;;;;;;4980869;28;20606;-63
2022/07/12 03:50:58;;;;;;;2.70;1.33;;;19.40;95.60;;;;;;4980646;28;20036;-63
2022/07/12 03:53:25;;;;;;;2.30;1.45;;;19.30;96.40;;;;;;4980852;28;20019;-62
2022/07/12 03:55:52;;;;;;;1.92;1.10;;;19.40;95.70;;;;;;4981747;28;20026;-66
2022/07/12 03:58:19;;;;;;;3.25;1.77;;;19.40;92.90;;;;;;4980791;28;20607;-62
2022/07/12 04:00:46;;;;;;;2.33;1.20;;;19.30;91.40;;;;;;4979775;28;20477;-66
2022/07/12 04:03:13;;;;;;;2.22;1.20;;;18.90;92.50;;;;;;4981485;28;20580;-63
2022/07/12 04:05:41;;;;;;;2.78;0.82;;;18.70;92.60;;;;;;4980254;28;20030;-66
2022/07/12 04:08:09;;;;;;;3.83;1.15;;;18.50;93.00;;;;;;4981416;28;20022;-62
2022/07/12 04:10:36;;;;;;;3.05;1.05;;;18.30;94.70;;;;;;4980675;28;20026;-62
2022/07/12 04:13:03;;;;;;;2.05;0.73;;;18.30;95.00;;;;;;4979939;28;20026;-62
2022/07/12 04:15:31;;;;;;;2.70;1.08;;;18.30;95.80;;;;;;4980441;28;20126;-62
2022/07/12 04:17:58;;;;;;;1.40;0.70;;;18.50;93.60;;;;;;4980012;28;20474;-62
2022/07/12 04:20:25;;;;;;;1.88;0.80;;;18.80;93.00;;;;;;4980420;28;20393;-63
2022/07/12 04:22:52;;;;;;;1.58;0.90;;;18.90;91.70;;;;;;4980625;28;20088;-63
2022/07/12 04:25:19;;;;;;;2.55;0.77;;;18.90;92.90;;;;;;4980725;28;20037;-65
2022/07/12 04:27:46;;;;;;;1.17;0.65;;;19.00;91.30;;;;;;4979667;28;20015;-65
2022/07/12 04:30:14;;;;;;;0.65;0.35;;;18.90;90.00;;;;;;4978978;28;20026;-64
2022/07/12 04:32:41;;;;;;;4.53;0.73;;;18.70;83.70;;;;;;4980405;28;20477;-63
2022/07/12 04:35:08;;;;;;;0.30;0.30;;;18.70;86.10;;;;;;4980015;28;20044;-64
2022/07/12 04:37:36;;;;;;;1.60;0.50;;;18.80;86.60;;;;;;4979601;28;20352;-62
2022/07/12 04:40:03;;;;;;;0.65;0.20;;;18.90;79.20;;;;;;4989898;28;20048;-62
2022/07/12 04:42:30;;;;;;;0.47;0.32;;;18.90;76.10;;;;;;4999420;28;20065;-62
2022/07/12 04:44:57;;;;;;;0.60;0.40;;;18.90;80.00;;;;;;4999107;28;20628;-66
2022/07/12 04:47:24;;;;;;;1.15;0.40;;;19.00;85.80;;;;;;4999606;28;20570;-65
2022/07/12 04:49:52;;;;;;;2.08;0.60;;;19.00;83.20;;;;;;5000057;28;20219;-62
2022/07/12 04:52:19;;;;;;;0.57;0.50;;;19.00;81.70;;;;;;4980860;28;20393;-66
2022/07/12 04:54:47;;;;;;;1.02;0.60;;;18.80;82.50;;;;;;4998868;28;20034;-66
2022/07/12 04:57:14;;;;;;;1.27;0.47;;;19.00;85.50;;;;;;4999254;28;20523;-64
2022/07/12 04:59:41;;;;;;;0.85;0.50;;;18.90;84.30;;;;;;4998944;28;20516;-65
2022/07/12 05:02:08;;;;;;;0.85;0.40;;;19.00;80.20;;;;;;4999177;28;20116;-61
2022/07/12 05:04:35;;;;;;;1.35;0.68;;;19.00;82.20;;;;;;4998546;28;20022;-65
2022/07/12 05:07:03;;;;;;;1.80;0.50;;;18.80;85.30;;;;;;4999737;28;20458;-62
2022/07/12 05:09:30;;;;;;;3.20;0.80;;;18.40;83.10;;;;;;4998116;28;20678;-67
2022/07/12 05:11:57;;;;;;;3.17;0.70;;;17.90;82.90;;;;;;4998709;28;20034;-66
2022/07/12 05:14:25;;;;;;;5.60;0.80;;;17.60;84.70;;;;;;5000060;28;20026;-66
2022/07/12 05:16:52;;;;;;;0.95;0.40;;;17.60;88.60;;;;;;4998462;28;20053;-65
2022/07/12 05:19:19;;;;;;;1.92;0.77;;;17.60;88.80;;;;;;4996517;28;20426;-62
2022/07/12 05:21:47;;;;;;;0.88;0.35;;;17.70;89.20;;;;;;4997110;28;20041;-67
2022/07/12 05:24:14;;;;;;;1.00;0.75;;;17.90;90.30;;;;;;4997364;28;20022;-67
2022/07/12 05:26:41;;;;;;;4.70;0.75;;;18.20;90.90;;;;;;4997345;28;20471;-65
2022/07/12 05:29:09;;;;;;;0.98;0.57;;;18.50;91.30;;;;;;4996528;28;20459;-70
2022/07/12 05:31:36;;;;;;;2.20;0.68;;;18.60;87.50;;;;;;4994511;28;20053;-69
2022/07/12 05:34:03;;;;;;;1.98;0.77;;;18.50;86.00;;;;;;4977010;28;20084;-73
2022/07/12 05:36:31;;;;;;;4.68;0.80;;;18.50;85.20;;;;;;4977639;28;20042;-71
2022/07/12 05:39:01;;;;;;;2.53;0.63;;;18.70;85.50;;;;;;4995525;28;20456;-73
2022/07/12 05:41:28;;;;;;;0.75;0.47;;;18.80;83.80;;;;;;4995301;28;20164;-68
2022/07/12 05:43:55;;;;;;;1.33;0.55;;;18.70;85.60;;;;;;4993984;28;20719;-71
2022/07/12 05:46:22;;;;;;;2.58;0.40;;;18.60;83.60;;;;;;4977031;28;20022;-65
2022/07/12 05:48:49;;;;;;;1.30;0.70;;;18.40;88.40;;;;;;4994196;28;20056;-64
2022/07/12 05:54:02;;;;;;;1.38;0.80;;;18.40;85.40;;;;;;4995790;28;20490;-71
2022/07/12 05:56:29;;;;;;;1.58;0.60;;;18.20;85.00;;;;;;4996842;28;20485;-65
2022/07/12 05:58:56;;;;;;;0.70;0.65;;;17.90;87.60;;;;;;4996528;28;20042;-68
2022/07/12 06:01:23;;;;;;;0.95;0.57;;;17.70;90.10;;;;;;4979909;28;20053;-63
2022/07/12 06:03:50;;;;;;;2.03;0.73;;;17.40;91.60;;;;;;4998096;28;20107;-65
2022/07/12 06:06:17;;;;;;;1.10;0.95;;;17.30;91.00;;;;;;5000841;28;20044;-66
2022/07/12 06:08:45;;;;;;;1.58;0.75;;;17.00;92.10;;;;;;5004638;28;20056;-64
2022/07/12 06:11:12;;;;;;;1.83;0.80;;;17.00;92.80;;;;;;5002822;28;20450;-64
2022/07/12 06:13:39;;;;;;;1.33;0.80;;;16.80;92.60;;;;;;5003050;28;20017;-65
2022/07/12 06:16:06;;;;;;;1.75;0.68;;;16.60;93.30;;;;;;5005871;28;20065;-64
2022/07/12 06:18:37;;;;;;;1.23;0.50;;;16.30;93.80;;;;;;5003880;28;20097;-63
2022/07/12 06:21:05;;;;;;;1.13;0.57;;;16.10;94.30;;;;;;5003622;28;20026;-65
2022/07/12 06:23:32;;;;;;;1.35;0.77;;;16.00;94.80;;;;;;5005941;28;20457;-63
2022/07/12 06:25:59;;;;;;;1.35;0.75;;;15.90;95.10;;;;;;5000801;28;20106;-65
2022/07/12 06:28:26;;;;;;;1.88;0.63;;;15.60;95.90;;;;;;4999162;28;20128;-65
2022/07/12 06:30:53;;;;;;;1.15;0.60;;;15.30;96.90;;;;;;5001644;28;20351;-65
2022/07/12 06:33:21;;;;;;;2.15;0.95;;;15.10;97.60;;;;;;5001689;28;20112;-65
2022/07/12 06:35:48;;;;;;;0.43;0.40;;;14.90;98.70;;;;;;5006247;28;20021;-63
2022/07/12 06:38:16;;;;;;;1.33;0.52;;;14.90;98.80;;;;;;5004213;28;20053;-66
2022/07/12 06:40:43;;;;;;;1.35;0.60;;;14.80;98.90;;;;;;5000566;28;20424;-63
2022/07/12 06:43:11;;;;;;;2.20;0.88;;;14.70;99.50;;;;;;5000442;28;20018;-63
2022/07/12 06:45:39;;;;;;;1.13;0.55;;;14.60;99.90;;;;;;5003839;28;20030;-64
2022/07/12 06:48:06;;;;;;;2.97;1.10;;;14.70;99.90;;;;;;5004127;28;20034;-68
2022/07/12 06:50:34;;;;;;;2.15;1.08;;;14.60;99.90;;;;;;5006250;28;20504;-65
2022/07/12 06:53:01;;;;;;;1.30;1.10;;;14.50;99.90;;;;;;4985346;28;20079;-66
2022/07/12 06:55:29;;;;;;;3.63;1.35;;;14.20;99.90;;;;;;5003653;28;20057;-66
2022/07/12 06:57:57;;;;;;;3.08;1.17;;;14.00;99.90;;;;;;5005914;28;20029;-62
2022/07/12 07:00:24;;;;;;;3.50;1.10;;;14.10;99.90;;;;;;5004573;28;20387;-64
2022/07/12 07:02:51;;;;;;;3.50;1.73;;;13.90;99.90;;;;;;5005165;28;20148;-64
2022/07/12 07:05:19;;;;;;;3.33;1.33;;;14.00;99.90;;;;;;5003077;28;20432;-63
2022/07/12 07:07:46;;;;;;;3.33;1.00;;;14.00;99.90;;;;;;5002714;28;20048;-61
2022/07/12 07:10:14;;;;;;;1.40;1.05;;;13.90;99.90;;;;;;5001540;28;20030;-65
2022/07/12 07:12:41;;;;;;;3.00;1.48;;;13.80;99.90;;;;;;5001032;28;20034;-64
2022/07/12 07:15:09;;;;;;;3.60;1.80;;;13.90;99.90;;;;;;5005334;28;20033;-64
2022/07/12 07:17:36;;;;;;;5.95;2.42;;;13.90;99.90;;;;;;5006034;28;20037;-61
2022/07/12 07:20:04;;;;;;;4.53;1.95;;;14.00;99.90;;;;;;5005065;28;20029;-60
2022/07/12 07:22:31;;;;;;;3.25;1.98;;;14.10;99.90;;;;;;5006789;28;20420;-61
2022/07/12 07:24:58;;;;;;;4.55;2.15;;;14.10;99.90;;;;;;5002897;28;20053;-64
2022/07/12 07:27:25;;;;;;;5.53;2.15;;;14.10;99.90;;;;;;4999138;28;20030;-61
2022/07/12 07:32:37;;;;;;;3.70;1.98;;;13.60;99.90;;;;;;5001155;28;20467;-60
2022/07/12 07:35:08;;;;;;;7.20;2.75;;;13.20;99.90;;;;;;5004784;28;20038;-64
2022/07/12 07:37:35;;;;;;;13.75;10.20;;;12.90;99.90;;;;;;5000344;28;20046;-61
2022/07/12 07:40:03;;;;;;;9.52;5.32;;;12.70;99.90;;;;;;5000093;28;20464;-65
2022/07/12 07:42:30;;;;;;;5.18;2.70;;;12.70;99.90;;;;;;5002398;28;20387;-61
2022/07/12 07:44:57;;;;;;;5.88;2.60;;;12.60;99.90;;;;;;5001655;28;20037;-63
2022/07/12 07:47:25;;;;;;;8.65;4.13;;;12.40;99.90;;;;;;5002272;28;20022;-63
2022/07/12 07:49:56;;;;;;;7.35;3.92;;;12.40;99.90;;;;;;5002593;28;20406;-61
2022/07/12 07:52:23;;;;;;;15.98;10.05;;;12.40;99.90;;;;;;5002080;28;20053;-63
2022/07/12 07:54:50;;;;;;;15.82;10.27;;;12.30;99.90;;;;;;5001564;28;20072;-62
2022/07/12 07:57:17;;;;;;;5.90;3.78;;;12.20;99.90;;;;;;4982751;28;20463;-60
2022/07/12 07:59:44;;;;;;;13.75;9.82;;;12.10;99.90;;;;;;5002438;28;20557;-63
2022/07/12 08:02:14;;;;;;;6.93;3.50;;;12.10;99.90;;;;;;5003004;28;20145;-60
2022/07/12 08:04:41;;;;;;;9.55;3.70;;;12.50;99.90;;;;;;4998371;28;20034;-59
2022/07/12 08:07:08;;;;;;;3.60;2.42;;;12.60;99.90;;;;;;5001097;28;20455;-61
2022/07/12 08:09:36;;;;;;;5.68;2.42;;;12.70;99.90;;;;;;5000901;28;20116;-62
2022/07/12 08:12:03;;;;;;;5.13;2.58;;;12.70;99.90;;;;;;5001031;28;20392;-63
2022/07/12 08:14:30;;;;;;;5.80;2.90;;;12.70;99.90;;;;;;5000712;28;20415;-66
2022/07/12 08:16:57;;;;;;;5.25;2.90;;;12.80;99.90;;;;;;5000281;28;20030;-66
2022/07/12 08:19:24;;;;;;;6.07;3.35;;;12.70;99.90;;;;;;4995985;28;20037;-62
2022/07/12 08:21:52;;;;;;;6.65;4.47;;;12.50;99.90;;;;;;4998922;28;20048;-61
2022/07/12 08:24:19;;;;;;;4.30;3.08;;;12.50;99.90;;;;;;4992295;28;20587;-61
2022/07/12 08:26:46;;;;;;;4.43;3.08;;;12.60;99.90;;;;;;4982797;28;20033;-61
2022/07/12 08:29:13;;;;;;;5.13;3.28;;;12.60;99.90;;;;;;5000029;28;20036;-64
2022/07/12 08:31:40;;;;;;;5.32;3.17;;;12.50;99.90;;;;;;4997330;28;20030;-63
2022/07/12 08:34:07;;;;;;;8.60;4.47;;;12.50;99.90;;;;;;4997530;28;20029;-61
2022/07/12 08:36:34;;;;;;;5.53;4.50;;;12.40;99.90;;;;;;4999985;28;20532;-63
2022/07/12 08:39:03;;;;;;;7.60;4.32;;;12.40;99.90;;;;;;5000886;28;20022;-65
2022/07/12 08:41:30;;;;;;;8.30;4.82;;;12.40;99.90;;;;;;4999522;28;20029;-65
2022/07/12 08:43:57;;;;;;;5.00;3.92;;;12.40;99.90;;;;;;5002006;28;20092;-61
2022/07/12 08:46:25;;;;;;;7.97;4.28;;;12.30;99.90;;;;;;5000963;28;20444;-63
2022/07/12 08:48:52;;;;;;;8.50;3.55;;;12.20;99.90;;;;;;5000159;28;20099;-62
2022/07/12 08:51:20;;;;;;;5.05;3.40;;;12.50;99.90;;;;;;4998087;28;20032;-61
2022/07/12 08:54:04;;;;;;;7.90;3.72;;;12.70;99.90;;;;;;5000539;28;20037;-61
2022/07/12 08:56:37;;;;;;;6.47;3.70;;;12.70;99.90;;;;;;4998509;28;20083;-65
2022/07/12 08:59:21;;;;;;;6.00;3.42;;;12.60;99.90;;;;;;5001181;28;20429;-63
2022/07/12 09:01:51;;;;;;;7.80;4.03;;;12.40;99.90;;;;;;5000414;28;20043;-62
2022/07/12 09:04:27;;;;;;;9.30;4.22;;;12.40;99.90;;;;;;4999875;28;20018;-64
2022/07/12 09:06:54;;;;;;;5.45;3.75;;;12.20;99.90;;;;;;5000420;28;20473;-62
2022/07/12 09:09:30;;;;;;;6.78;3.60;;;12.20;99.90;;;;;;5000345;28;20029;-64
2022/07/12 09:11:58;;;;;;;4.63;3.35;;;12.10;99.90;;;;;;4998866;28;20030;-63
2022/07/12 09:14:28;;;;;;;4.07;3.55;;;12.10;99.90;;;;;;4998463;28;20488;-67
2022/07/12 09:17:15;;;;;;;5.82;4.00;;;12.00;99.90;;;;;;5000525;28;20071;-66
2022/07/12 09:19:58;;;;;;;6.85;3.60;;;12.00;99.90;;;;;;4975030;28;20034;-65
2022/07/12 09:22:24;;;;;;;;;;;11.80;99.90;;;;;;4975608;28;20034;-66
2022/07/12 09:24:51;;;;;;;8.43;5.47;;;11.70;99.90;;;;;;4975047;28;19954;-68
2022/07/12 09:27:34;;;;;;;8.05;4.47;;;11.80;99.90;;;;;;4972439;28;20072;-67
2022/07/12 09:30:02;;;;;;;8.88;5.65;;;11.80;99.90;;;;;;4976053;28;20383;-68
2022/07/12 09:38:12;;;;;;;9.30;6.20;;;11.90;99.90;;;;;;4974777;28;20069;-65
2022/07/12 09:40:39;;;;;;;9.18;5.80;;;11.80;99.90;;;;;;4974625;28;20563;-63
2022/07/12 09:43:06;;;;;;;10.80;6.03;;;11.80;99.90;;;;;;4975398;28;20034;-63
2022/07/12 09:45:35;;;;;;;10.73;7.80;;;11.70;99.90;;;;;;4976634;28;20317;-64
2022/07/12 09:48:04;;;;;;;9.40;6.38;;;11.70;99.90;;;;;;4977916;28;20389;-63
2022/07/12 09:50:32;;;;;;;8.52;6.03;;;11.70;99.90;;;;;;4989386;28;20042;-65
2022/07/12 09:53:02;;;;;;;12.30;7.75;;;11.60;99.90;;;;;;5003574;28;20053;-62
2022/07/12 09:55:35;;;;;;;7.57;5.43;;;11.40;99.90;;;;;;5002010;28;20033;-62
2022/07/12 09:58:03;;;;;;;9.18;5.60;;;11.30;99.90;;;;;;5002494;28;20070;-63
2022/07/12 10:00:30;;;;;;;10.63;6.45;;;11.30;99.90;;;;;;5001418;28;20041;-62
2022/07/12 10:03:01;;;;;;;7.85;5.32;;;11.40;99.90;;;;;;5002098;28;20030;-63
2022/07/12 10:05:29;;;;;;;8.45;5.72;;;11.40;99.90;;;;;;5002838;28;20551;-61
2022/07/12 10:07:56;;;;;;;8.52;5.20;;;11.40;99.90;;;;;;5003218;28;20396;-62
2022/07/12 10:10:25;;;;;;;6.75;5.32;;;11.40;99.90;;;;;;5002983;28;20033;-63
2022/07/12 10:12:53;;;;;;;7.25;5.28;;;11.30;99.90;;;;;;5003569;28;20037;-64
2022/07/12 10:15:23;;;;;;;8.55;5.60;;;11.20;99.90;;;;;;5003661;28;20489;-61
2022/07/12 10:17:55;;;;;;;10.30;5.18;;;11.10;99.90;;;;;;5001848;28;20034;-62
2022/07/12 10:20:24;;;;;;;7.05;5.20;;;11.00;99.90;;;;;;5003058;28;20030;-63
2022/07/12 10:22:55;;;;;;;7.68;5.07;;;10.90;99.90;;;;;;5000016;28;20037;-63
2022/07/12 10:25:30;;;;;;;8.60;5.45;;;10.80;99.90;;;;;;5000832;28;20037;-63
2022/07/12 10:28:00;;;;;;;10.75;5.63;;;10.90;99.90;;;;;;4999994;28;20029;-63
2022/07/12 10:30:28;;;;;;;7.60;5.70;;;10.80;99.90;;;;;;4999759;28;20026;-63
2022/07/12 10:32:59;;;;;;;9.38;5.72;;;10.80;99.90;;;;;;4997239;28;20025;-63
2022/07/12 10:35:29;;;;;;;7.63;5.70;;;10.70;99.90;;;;;;5000248;28;20056;-63
2022/07/12 10:38:17;;;;;;;11.15;6.10;;;10.70;99.90;;;;;;5000342;28;20063;-63
2022/07/12 10:40:46;;;;;;;8.68;5.68;;;10.70;99.90;;;;;;4997738;28;20053;-64
2022/07/12 10:43:16;;;;;;;11.80;5.75;;;10.80;99.90;;;;;;5000095;28;20030;-62
2022/07/12 10:45:45;;;;;;;10.50;6.30;;;10.70;99.90;;;;;;5000054;28;20057;-63
2022/07/12 10:48:14;;;;;;;10.30;5.70;;;10.70;99.90;;;;;;4999559;28;20022;-63
2022/07/12 10:50:45;;;;;;;8.48;4.97;;;10.80;99.90;;;;;;4999636;28;20096;-63
2022/07/12 10:53:27;;;;;;;6.97;5.20;;;10.80;99.90;;;;;;4998353;28;20026;-63
2022/07/12 10:56:15;;;;;;;8.23;4.30;;;11.00;99.90;;;;;;4999278;28;20106;-63
2022/07/12 10:58:54;;;;;;;7.15;4.53;;;11.00;99.90;;;;;;4998631;28;20363;-63
2022/07/12 11:01:26;;;;;;;7.40;4.55;;;10.90;99.90;;;;;;5000402;28;20414;-63
2022/07/12 11:03:57;;;;;;;7.03;5.13;;;10.70;99.90;;;;;;4999607;28;20022;-63
2022/07/12 11:06:26;;;;;;;11.80;4.95;;;10.60;99.90;;;;;;4999846;28;20675;-63
2022/07/12 11:08:59;;;;;;;7.95;5.60;;;10.50;99.90;;;;;;4998094;28;20532;-63
2022/07/12 11:11:31;;;;;;;8.95;7.43;;;10.50;99.90;;;;;;4999056;28;20092;-63
2022/07/12 11:14:00;;;;;;;8.93;6.75;;;10.40;99.90;;;;;;5000611;28;20022;-63
2022/07/12 11:16:31;;;;;;;7.20;6.13;;;10.40;99.90;;;;;;5000002;28;20038;-64
2022/07/12 11:19:00;;;;;;;11.05;5.88;;;10.40;99.90;;;;;;5000218;28;20112;-63
2022/07/12 11:21:27;;;;;;;9.38;5.72;;;10.50;99.90;;;;;;4999704;28;20564;-63
2022/07/12 11:23:54;;;;;;;8.13;5.80;;;10.70;99.90;;;;;;5000273;28;20105;-62
2022/07/12 11:26:22;;;;;;;7.10;5.60;;;10.70;99.90;;;;;;4980832;28;20033;-61
2022/07/12 11:28:49;;;;;;;6.78;5.85;;;10.70;99.90;;;;;;4998273;28;20045;-64
2022/07/12 11:31:18;;;;;;;7.57;5.43;;;10.90;99.90;;;;;;4997916;28;20061;-63
2022/07/12 11:33:47;;;;;;;11.30;6.03;;;10.90;99.90;;;;;;4997730;28;20041;-62
2022/07/12 11:36:15;;;;;;;10.02;7.15;;;10.90;99.90;;;;;;5002452;28;20033;-63
2022/07/12 11:38:45;;;;;;;9.95;6.53;;;10.90;99.90;;;;;;5001579;28;20021;-62
2022/07/12 11:41:14;;;;;;;9.60;6.80;;;10.90;99.90;;;;;;5000190;28;20046;-63
2022/07/12 11:43:42;;;;;;;8.15;5.68;;;10.90;99.90;;;;;;4993063;28;20831;-65
2022/07/12 11:46:10;;;;;;;6.82;4.85;;;10.80;99.90;;;;;;5000418;28;20524;-62
2022/07/12 11:48:38;;;;;;;7.68;4.63;;;10.80;99.90;;;;;;4997852;28;20029;-62
2022/07/12 11:51:10;;;;;;;5.28;4.40;;;10.90;99.90;;;;;;5000334;28;20448;-63
2022/07/12 11:53:39;;;;;;;7.32;4.55;;;11.00;99.90;;;;;;5000396;28;20022;-63
2022/07/12 11:56:08;;;;;;;7.00;4.75;;;11.10;99.90;;;;;;5000792;28;20120;-63
2022/07/12 11:58:40;;;;;;;5.97;4.50;;;11.20;99.90;;;;;;5000903;28;20021;-62
2022/07/12 12:01:14;;;;;;;5.60;4.20;;;11.10;99.90;;;;;;5000358;28;20026;-63
2022/07/12 12:03:46;;;;;;;6.32;4.80;;;11.10;99.90;;;;;;5001396;28;20568;-64
2022/07/12 12:06:14;;;;;;;6.95;4.60;;;11.00;99.90;;;;;;4999931;28;20060;-62
2022/07/12 12:08:42;;;;;;;6.32;4.80;;;10.90;99.90;;;;;;4999201;28;20038;-62
2022/07/12 12:11:09;;;;;;;6.97;5.97;;;11.00;99.90;;;;;;5000755;28;20489;-62
2022/07/12 12:13:39;;;;;;;7.63;6.20;;;11.10;99.90;;;;;;4999327;28;20061;-64
2022/07/12 12:16:07;;;;;;;8.32;5.38;;;11.00;99.90;;;;;;5000014;28;20034;-62
2022/07/12 12:18:38;;;;;;;5.85;4.57;;;10.90;99.90;;;;;;4997710;28;20030;-64
2022/07/12 12:21:10;;;;;;;4.75;3.83;;;10.90;99.90;;;;;;5001561;28;20034;-63
2022/07/12 12:23:39;;;;;;;8.18;4.53;;;10.90;99.90;;;;;;5000926;28;20026;-63
2022/07/12 12:26:14;;;;;;;6.10;4.50;;;10.90;99.90;;;;;;5003550;28;20062;-62
2022/07/12 12:28:49;;;;;;;6.45;5.10;;;10.80;99.90;;;;;;5001238;28;20080;-63
2022/07/12 12:31:20;;;;;;;6.13;4.80;;;10.80;99.90;;;;;;5004929;28;20030;-62
2022/07/12 12:33:49;;;;;;;6.30;4.95;;;10.80;99.90;;;;;;5002730;28;20099;-63
2022/07/12 12:36:23;;;;;;;7.15;5.22;;;10.70;99.90;;;;;;5006372;28;20092;-62
2022/07/12 12:39:01;;;;;;;7.18;5.35;;;10.70;99.90;;;;;;5003720;28;20381;-63
2022/07/12 12:41:29;;;;;;;10.13;6.25;;;10.60;99.90;;;;;;5003400;28;20038;-63
2022/07/12 12:44:02;;;;;;;6.45;4.97;;;10.60;99.90;;;;;;5005272;28;20380;-63
2022/07/12 12:46:45;;;;;;;;;;;10.60;99.90;;;;;;5003773;28;20060;-65
2022/07/12 12:49:12;;;;;;;8.85;4.82;;;10.60;99.90;;;;;;5003131;28;19976;-64
2022/07/12 12:51:53;;;;;;;7.20;4.88;;;10.60;99.90;;;;;;5003070;28;20059;-64
2022/07/12 12:54:33;;;;;;;7.97;4.80;;;10.60;99.90;;;;;;5000438;28;20084;-66
2022/07/12 12:57:00;;;;;;;6.38;4.20;;;10.60;99.90;;;;;;5003086;28;20026;-63
2022/07/12 12:59:27;;;;;;;7.13;5.00;;;10.60;99.90;;;;;;5005402;28;20026;-63
2022/07/12 13:01:54;;;;;;;7.93;5.15;;;10.60;99.90;;;;;;5005657;28;20112;-63
2022/07/12 13:04:22;;;;;;;7.57;5.03;;;10.50;99.90;;;;;;4997593;28;20547;-63
2022/07/12 13:06:49;;;;;;;9.68;5.50;;;10.50;99.90;;;;;;5001728;28;20473;-62